sensor_id;sensor_type;location;lat;lon;timestamp;P1;durP1;ratioP1;P2;durP2;ratioP2
16662;SDS011;8445;51.270;9.434;2023-04-30T00:01:37;51.70;;;35.43;;
16662;SDS011;8445;51.270;9.434;2023-04-30T00:04:02;53.50;;;33.47;;
16662;SDS011;8445;51.270;9.434;2023-04-30T00:06:28;47.63;;;33.33;;
16662;SDS011;8445;51.270;9.434;2023-04-30T00:08:53;49.53;;;32.33;;
16662;SDS011;8445;51.270;9.434;2023-04-30T00:11:19;49.83;;;32.87;;
16662;SDS011;8445;51.270;9.434;2023-04-30T00:13:45;44.87;;;31.47;;
16662;SDS011;8445;51.270;9.434;2023-04-30T00:16:10;49.03;;;31.00;;
16662;SDS011;8445;51.270;9.434;2023-04-30T00:18:36;47.07;;;30.10;;
16662;SDS011;8445;51.270;9.434;2023-04-30T00:21:02;45.47;;;29.67;;
16662;SDS011;8445;51.270;9.434;2023-04-30T00:23:28;47.70;;;29.50;;
16662;SDS011;8445;51.270;9.434;2023-04-30T00:25:53;47.37;;;30.57;;
16662;SDS011;8445;51.270;9.434;2023-04-30T00:28:19;43.67;;;31.40;;
16662;SDS011;8445;51.270;9.434;2023-04-30T00:30:44;42.67;;;30.50;;
16662;SDS011;8445;51.270;9.434;2023-04-30T00:33:10;47.97;;;31.50;;
16662;SDS011;8445;51.270;9.434;2023-04-30T00:35:36;47.90;;;31.60;;
16662;SDS011;8445;51.270;9.434;2023-04-30T00:38:01;50.50;;;32.23;;
16662;SDS011;8445;51.270;9.434;2023-04-30T00:40:27;48.77;;;34.07;;
16662;SDS011;8445;51.270;9.434;2023-04-30T00:42:53;55.40;;;34.10;;
16662;SDS011;8445;51.270;9.434;2023-04-30T00:45:20;57.03;;;33.93;;
16662;SDS011;8445;51.270;9.434;2023-04-30T00:47:47;50.67;;;33.57;;
16662;SDS011;8445;51.270;9.434;2023-04-30T00:50:13;49.37;;;33.83;;
16662;SDS011;8445;51.270;9.434;2023-04-30T00:52:42;56.53;;;36.07;;
16662;SDS011;8445;51.270;9.434;2023-04-30T00:55:09;55.53;;;36.00;;
16662;SDS011;8445;51.270;9.434;2023-04-30T00:57:35;62.40;;;35.80;;
16662;SDS011;8445;51.270;9.434;2023-04-30T01:00:02;57.90;;;34.83;;
16662;SDS011;8445;51.270;9.434;2023-04-30T01:02:29;60.53;;;34.17;;
16662;SDS011;8445;51.270;9.434;2023-04-30T01:04:55;53.40;;;32.67;;
16662;SDS011;8445;51.270;9.434;2023-04-30T01:07:21;53.10;;;33.87;;
16662;SDS011;8445;51.270;9.434;2023-04-30T01:09:49;50.83;;;31.70;;
16662;SDS011;8445;51.270;9.434;2023-04-30T01:12:25;52.83;;;32.53;;
16662;SDS011;8445;51.270;9.434;2023-04-30T01:15:03;54.40;;;32.30;;
16662;SDS011;8445;51.270;9.434;2023-04-30T01:17:34;46.73;;;30.77;;
16662;SDS011;8445;51.270;9.434;2023-04-30T01:20:27;48.20;;;30.77;;
16662;SDS011;8445;51.270;9.434;2023-04-30T01:28:14;50.43;;;31.77;;
16662;SDS011;8445;51.270;9.434;2023-04-30T01:30:41;57.17;;;34.37;;
16662;SDS011;8445;51.270;9.434;2023-04-30T01:33:11;61.27;;;35.73;;
16662;SDS011;8445;51.270;9.434;2023-04-30T01:41:08;59.90;;;33.90;;
16662;SDS011;8445;51.270;9.434;2023-04-30T01:46:24;55.47;;;33.03;;
16662;SDS011;8445;51.270;9.434;2023-04-30T01:48:54;56.07;;;33.80;;
16662;SDS011;8445;51.270;9.434;2023-04-30T01:51:40;59.00;;;33.57;;
16662;SDS011;8445;51.270;9.434;2023-04-30T01:54:22;55.87;;;34.57;;
16662;SDS011;8445;51.270;9.434;2023-04-30T01:57:02;60.67;;;36.00;;
16662;SDS011;8445;51.270;9.434;2023-04-30T01:59:37;51.97;;;33.67;;
16662;SDS011;8445;51.270;9.434;2023-04-30T02:02:04;65.30;;;35.97;;
16662;SDS011;8445;51.270;9.434;2023-04-30T02:04:30;64.37;;;35.30;;
16662;SDS011;8445;51.270;9.434;2023-04-30T02:06:56;65.97;;;36.60;;
16662;SDS011;8445;51.270;9.434;2023-04-30T02:09:22;58.17;;;37.23;;
16662;SDS011;8445;51.270;9.434;2023-04-30T02:11:48;59.40;;;34.70;;
16662;SDS011;8445;51.270;9.434;2023-04-30T02:14:14;62.03;;;35.87;;
16662;SDS011;8445;51.270;9.434;2023-04-30T02:16:40;56.20;;;35.00;;
16662;SDS011;8445;51.270;9.434;2023-04-30T02:19:05;64.70;;;33.77;;
16662;SDS011;8445;51.270;9.434;2023-04-30T02:21:33;57.50;;;33.23;;
16662;SDS011;8445;51.270;9.434;2023-04-30T02:23:58;50.10;;;33.30;;
16662;SDS011;8445;51.270;9.434;2023-04-30T02:26:28;49.20;;;31.77;;
16662;SDS011;8445;51.270;9.434;2023-04-30T02:28:54;58.03;;;34.47;;
16662;SDS011;8445;51.270;9.434;2023-04-30T02:31:22;62.43;;;35.07;;
16662;SDS011;8445;51.270;9.434;2023-04-30T02:33:47;57.50;;;33.90;;
16662;SDS011;8445;51.270;9.434;2023-04-30T02:36:13;58.50;;;34.57;;
16662;SDS011;8445;51.270;9.434;2023-04-30T02:38:38;61.23;;;34.33;;
16662;SDS011;8445;51.270;9.434;2023-04-30T02:41:04;56.63;;;32.27;;
16662;SDS011;8445;51.270;9.434;2023-04-30T02:43:31;55.00;;;31.87;;
16662;SDS011;8445;51.270;9.434;2023-04-30T02:45:58;56.00;;;32.40;;
16662;SDS011;8445;51.270;9.434;2023-04-30T02:48:23;57.93;;;34.07;;
16662;SDS011;8445;51.270;9.434;2023-04-30T02:50:49;64.03;;;34.47;;
16662;SDS011;8445;51.270;9.434;2023-04-30T02:53:14;63.67;;;34.87;;
16662;SDS011;8445;51.270;9.434;2023-04-30T02:55:40;56.87;;;31.77;;
16662;SDS011;8445;51.270;9.434;2023-04-30T02:58:10;46.37;;;28.73;;
16662;SDS011;8445;51.270;9.434;2023-04-30T03:00:35;45.93;;;29.03;;
16662;SDS011;8445;51.270;9.434;2023-04-30T03:03:01;46.70;;;29.30;;
16662;SDS011;8445;51.270;9.434;2023-04-30T03:05:27;51.97;;;29.10;;
16662;SDS011;8445;51.270;9.434;2023-04-30T03:07:52;42.13;;;27.40;;
16662;SDS011;8445;51.270;9.434;2023-04-30T03:10:18;44.93;;;26.50;;
16662;SDS011;8445;51.270;9.434;2023-04-30T03:12:43;52.80;;;30.33;;
16662;SDS011;8445;51.270;9.434;2023-04-30T03:15:08;42.13;;;26.90;;
16662;SDS011;8445;51.270;9.434;2023-04-30T03:17:34;38.03;;;25.40;;
16662;SDS011;8445;51.270;9.434;2023-04-30T03:20:00;41.90;;;27.30;;
16662;SDS011;8445;51.270;9.434;2023-04-30T03:22:25;42.03;;;27.93;;
16662;SDS011;8445;51.270;9.434;2023-04-30T03:24:51;49.10;;;29.23;;
16662;SDS011;8445;51.270;9.434;2023-04-30T03:27:16;46.17;;;29.47;;
16662;SDS011;8445;51.270;9.434;2023-04-30T03:29:42;49.87;;;29.83;;
16662;SDS011;8445;51.270;9.434;2023-04-30T03:32:07;50.83;;;30.03;;
16662;SDS011;8445;51.270;9.434;2023-04-30T03:34:33;43.40;;;28.63;;
16662;SDS011;8445;51.270;9.434;2023-04-30T03:37:01;47.90;;;29.33;;
16662;SDS011;8445;51.270;9.434;2023-04-30T03:39:28;39.43;;;27.80;;
16662;SDS011;8445;51.270;9.434;2023-04-30T03:41:53;50.97;;;28.17;;
16662;SDS011;8445;51.270;9.434;2023-04-30T03:44:18;42.90;;;28.30;;
16662;SDS011;8445;51.270;9.434;2023-04-30T03:46:44;44.63;;;28.50;;
16662;SDS011;8445;51.270;9.434;2023-04-30T03:49:09;48.10;;;28.27;;
16662;SDS011;8445;51.270;9.434;2023-04-30T03:51:36;39.20;;;26.73;;
16662;SDS011;8445;51.270;9.434;2023-04-30T03:54:05;41.37;;;26.40;;
16662;SDS011;8445;51.270;9.434;2023-04-30T03:56:33;48.90;;;27.40;;
16662;SDS011;8445;51.270;9.434;2023-04-30T03:59:00;40.27;;;24.37;;
16662;SDS011;8445;51.270;9.434;2023-04-30T04:01:28;41.23;;;24.53;;
16662;SDS011;8445;51.270;9.434;2023-04-30T04:03:55;47.00;;;27.40;;
16662;SDS011;8445;51.270;9.434;2023-04-30T04:06:20;41.93;;;26.07;;
16662;SDS011;8445;51.270;9.434;2023-04-30T04:08:48;44.23;;;26.23;;
16662;SDS011;8445;51.270;9.434;2023-04-30T04:11:13;35.90;;;24.20;;
16662;SDS011;8445;51.270;9.434;2023-04-30T04:13:39;41.40;;;25.53;;
16662;SDS011;8445;51.270;9.434;2023-04-30T04:16:05;47.20;;;27.67;;
16662;SDS011;8445;51.270;9.434;2023-04-30T04:18:32;42.93;;;27.73;;
16662;SDS011;8445;51.270;9.434;2023-04-30T04:20:58;41.57;;;28.17;;
16662;SDS011;8445;51.270;9.434;2023-04-30T04:23:25;48.70;;;27.57;;
16662;SDS011;8445;51.270;9.434;2023-04-30T04:25:55;45.93;;;28.37;;
16662;SDS011;8445;51.270;9.434;2023-04-30T04:28:21;46.57;;;26.10;;
16662;SDS011;8445;51.270;9.434;2023-04-30T04:30:49;36.73;;;24.30;;
16662;SDS011;8445;51.270;9.434;2023-04-30T04:33:15;35.53;;;23.87;;
16662;SDS011;8445;51.270;9.434;2023-04-30T04:35:42;29.13;;;22.00;;
16662;SDS011;8445;51.270;9.434;2023-04-30T04:38:08;26.67;;;20.27;;
16662;SDS011;8445;51.270;9.434;2023-04-30T04:40:33;27.60;;;20.60;;
16662;SDS011;8445;51.270;9.434;2023-04-30T04:42:59;24.27;;;18.50;;
16662;SDS011;8445;51.270;9.434;2023-04-30T04:45:25;25.37;;;18.47;;
16662;SDS011;8445;51.270;9.434;2023-04-30T04:47:51;21.97;;;17.43;;
16662;SDS011;8445;51.270;9.434;2023-04-30T04:50:17;25.57;;;19.40;;
16662;SDS011;8445;51.270;9.434;2023-04-30T04:52:42;24.63;;;19.50;;
16662;SDS011;8445;51.270;9.434;2023-04-30T04:55:08;26.53;;;20.23;;
16662;SDS011;8445;51.270;9.434;2023-04-30T04:57:34;27.10;;;18.73;;
16662;SDS011;8445;51.270;9.434;2023-04-30T05:00:00;26.53;;;19.77;;
16662;SDS011;8445;51.270;9.434;2023-04-30T05:02:25;27.87;;;20.40;;
16662;SDS011;8445;51.270;9.434;2023-04-30T05:04:54;28.33;;;20.37;;
16662;SDS011;8445;51.270;9.434;2023-04-30T05:07:20;27.90;;;20.40;;
16662;SDS011;8445;51.270;9.434;2023-04-30T05:09:45;26.13;;;19.10;;
16662;SDS011;8445;51.270;9.434;2023-04-30T05:12:12;23.23;;;19.17;;
16662;SDS011;8445;51.270;9.434;2023-04-30T05:14:38;24.07;;;18.40;;
16662;SDS011;8445;51.270;9.434;2023-04-30T05:17:03;25.33;;;17.53;;
16662;SDS011;8445;51.270;9.434;2023-04-30T05:19:29;21.43;;;15.77;;
16662;SDS011;8445;51.270;9.434;2023-04-30T05:21:54;18.40;;;16.40;;
16662;SDS011;8445;51.270;9.434;2023-04-30T05:24:20;18.33;;;15.47;;
16662;SDS011;8445;51.270;9.434;2023-04-30T05:26:50;20.57;;;15.63;;
16662;SDS011;8445;51.270;9.434;2023-04-30T05:29:15;16.23;;;14.53;;
16662;SDS011;8445;51.270;9.434;2023-04-30T05:31:43;17.47;;;14.40;;
16662;SDS011;8445;51.270;9.434;2023-04-30T05:34:08;14.90;;;13.10;;
16662;SDS011;8445;51.270;9.434;2023-04-30T05:36:34;20.02;;;14.00;;
16662;SDS011;8445;51.270;9.434;2023-04-30T05:38:59;16.97;;;14.13;;
16662;SDS011;8445;51.270;9.434;2023-04-30T05:41:25;18.02;;;14.27;;
16662;SDS011;8445;51.270;9.434;2023-04-30T05:43:53;14.70;;;13.20;;
16662;SDS011;8445;51.270;9.434;2023-04-30T05:46:18;16.25;;;13.32;;
16662;SDS011;8445;51.270;9.434;2023-04-30T05:48:43;18.80;;;14.30;;
16662;SDS011;8445;51.270;9.434;2023-04-30T05:51:09;16.67;;;11.55;;
16662;SDS011;8445;51.270;9.434;2023-04-30T05:53:35;13.52;;;11.02;;
16662;SDS011;8445;51.270;9.434;2023-04-30T05:56:00;18.88;;;9.35;;
16662;SDS011;8445;51.270;9.434;2023-04-30T05:58:26;11.60;;;7.93;;
16662;SDS011;8445;51.270;9.434;2023-04-30T06:00:51;10.75;;;6.88;;
16662;SDS011;8445;51.270;9.434;2023-04-30T06:03:17;11.82;;;4.78;;
16662;SDS011;8445;51.270;9.434;2023-04-30T06:05:43;10.02;;;5.50;;
16662;SDS011;8445;51.270;9.434;2023-04-30T06:08:09;9.63;;;4.50;;
16662;SDS011;8445;51.270;9.434;2023-04-30T06:10:34;7.30;;;5.40;;
16662;SDS011;8445;51.270;9.434;2023-04-30T06:13:00;9.55;;;5.65;;
16662;SDS011;8445;51.270;9.434;2023-04-30T06:15:26;5.68;;;3.97;;
16662;SDS011;8445;51.270;9.434;2023-04-30T06:17:51;8.73;;;4.88;;
16662;SDS011;8445;51.270;9.434;2023-04-30T06:20:17;11.20;;;4.22;;
16662;SDS011;8445;51.270;9.434;2023-04-30T06:22:42;7.07;;;3.60;;
16662;SDS011;8445;51.270;9.434;2023-04-30T06:25:08;12.68;;;4.85;;
16662;SDS011;8445;51.270;9.434;2023-04-30T06:27:33;8.23;;;4.30;;
16662;SDS011;8445;51.270;9.434;2023-04-30T06:29:59;8.48;;;3.30;;
16662;SDS011;8445;51.270;9.434;2023-04-30T06:32:25;6.88;;;2.78;;
16662;SDS011;8445;51.270;9.434;2023-04-30T06:34:51;10.43;;;2.67;;
16662;SDS011;8445;51.270;9.434;2023-04-30T06:37:16;4.47;;;1.90;;
16662;SDS011;8445;51.270;9.434;2023-04-30T06:39:42;7.07;;;2.78;;
16662;SDS011;8445;51.270;9.434;2023-04-30T06:42:08;8.15;;;3.53;;
16662;SDS011;8445;51.270;9.434;2023-04-30T06:44:34;6.88;;;2.47;;
16662;SDS011;8445;51.270;9.434;2023-04-30T06:46:59;9.75;;;2.63;;
16662;SDS011;8445;51.270;9.434;2023-04-30T06:49:25;6.72;;;2.92;;
16662;SDS011;8445;51.270;9.434;2023-04-30T06:51:50;6.53;;;2.40;;
16662;SDS011;8445;51.270;9.434;2023-04-30T06:54:15;4.65;;;1.58;;
16662;SDS011;8445;51.270;9.434;2023-04-30T06:56:41;4.35;;;1.80;;
16662;SDS011;8445;51.270;9.434;2023-04-30T06:59:08;9.15;;;2.88;;
16662;SDS011;8445;51.270;9.434;2023-04-30T07:01:33;3.30;;;2.25;;
16662;SDS011;8445;51.270;9.434;2023-04-30T07:03:59;6.68;;;2.67;;
16662;SDS011;8445;51.270;9.434;2023-04-30T07:06:25;2.80;;;1.70;;
16662;SDS011;8445;51.270;9.434;2023-04-30T07:08:51;4.53;;;2.10;;
16662;SDS011;8445;51.270;9.434;2023-04-30T07:11:16;11.80;;;2.40;;
16662;SDS011;8445;51.270;9.434;2023-04-30T07:13:41;5.20;;;2.10;;
16662;SDS011;8445;51.270;9.434;2023-04-30T07:16:07;7.30;;;2.30;;
16662;SDS011;8445;51.270;9.434;2023-04-30T07:18:34;6.65;;;2.45;;
16662;SDS011;8445;51.270;9.434;2023-04-30T07:21:00;6.13;;;2.22;;
16662;SDS011;8445;51.270;9.434;2023-04-30T07:23:25;9.18;;;2.05;;
16662;SDS011;8445;51.270;9.434;2023-04-30T07:25:51;6.28;;;2.30;;
16662;SDS011;8445;51.270;9.434;2023-04-30T07:28:16;8.60;;;2.47;;
16662;SDS011;8445;51.270;9.434;2023-04-30T07:30:42;4.32;;;1.88;;
16662;SDS011;8445;51.270;9.434;2023-04-30T07:33:07;8.45;;;2.10;;
16662;SDS011;8445;51.270;9.434;2023-04-30T07:35:33;9.88;;;1.98;;
16662;SDS011;8445;51.270;9.434;2023-04-30T07:37:59;3.33;;;1.77;;
16662;SDS011;8445;51.270;9.434;2023-04-30T07:40:25;4.45;;;2.00;;
16662;SDS011;8445;51.270;9.434;2023-04-30T07:42:50;4.80;;;2.05;;
16662;SDS011;8445;51.270;9.434;2023-04-30T07:45:15;6.22;;;2.20;;
16662;SDS011;8445;51.270;9.434;2023-04-30T07:47:41;3.35;;;1.50;;
16662;SDS011;8445;51.270;9.434;2023-04-30T07:50:06;6.10;;;2.10;;
16662;SDS011;8445;51.270;9.434;2023-04-30T07:52:32;4.53;;;2.42;;
16662;SDS011;8445;51.270;9.434;2023-04-30T07:54:58;8.43;;;2.20;;
16662;SDS011;8445;51.270;9.434;2023-04-30T07:57:23;5.00;;;1.90;;
16662;SDS011;8445;51.270;9.434;2023-04-30T07:59:51;5.85;;;2.17;;
16662;SDS011;8445;51.270;9.434;2023-04-30T08:02:20;3.67;;;2.10;;
16662;SDS011;8445;51.270;9.434;2023-04-30T08:04:48;9.48;;;2.13;;
16662;SDS011;8445;51.270;9.434;2023-04-30T08:07:13;8.07;;;1.98;;
16662;SDS011;8445;51.270;9.434;2023-04-30T08:09:41;4.93;;;1.90;;
16662;SDS011;8445;51.270;9.434;2023-04-30T08:12:09;5.88;;;1.77;;
16662;SDS011;8445;51.270;9.434;2023-04-30T08:14:37;6.70;;;2.72;;
16662;SDS011;8445;51.270;9.434;2023-04-30T08:17:02;8.52;;;2.28;;
16662;SDS011;8445;51.270;9.434;2023-04-30T08:19:31;3.22;;;1.80;;
16662;SDS011;8445;51.270;9.434;2023-04-30T08:21:57;6.75;;;2.40;;
16662;SDS011;8445;51.270;9.434;2023-04-30T08:24:22;6.68;;;2.47;;
16662;SDS011;8445;51.270;9.434;2023-04-30T08:26:54;6.35;;;2.28;;
16662;SDS011;8445;51.270;9.434;2023-04-30T08:29:19;7.30;;;2.47;;
16662;SDS011;8445;51.270;9.434;2023-04-30T08:31:45;5.85;;;2.30;;
16662;SDS011;8445;51.270;9.434;2023-04-30T08:34:12;5.40;;;2.38;;
16662;SDS011;8445;51.270;9.434;2023-04-30T08:36:38;7.88;;;2.00;;
16662;SDS011;8445;51.270;9.434;2023-04-30T08:39:03;3.58;;;1.98;;
16662;SDS011;8445;51.270;9.434;2023-04-30T08:41:31;6.45;;;2.00;;
16662;SDS011;8445;51.270;9.434;2023-04-30T08:44:06;6.85;;;2.28;;
16662;SDS011;8445;51.270;9.434;2023-04-30T08:46:35;9.20;;;2.10;;
16662;SDS011;8445;51.270;9.434;2023-04-30T08:49:03;3.60;;;2.03;;
16662;SDS011;8445;51.270;9.434;2023-04-30T08:51:29;11.52;;;2.45;;
16662;SDS011;8445;51.270;9.434;2023-04-30T08:53:56;8.57;;;2.55;;
16662;SDS011;8445;51.270;9.434;2023-04-30T08:56:22;7.75;;;1.90;;
16662;SDS011;8445;51.270;9.434;2023-04-30T08:58:48;4.32;;;2.00;;
16662;SDS011;8445;51.270;9.434;2023-04-30T09:01:14;4.88;;;1.90;;
16662;SDS011;8445;51.270;9.434;2023-04-30T09:03:39;4.80;;;2.08;;
16662;SDS011;8445;51.270;9.434;2023-04-30T09:06:05;3.60;;;1.67;;
16662;SDS011;8445;51.270;9.434;2023-04-30T09:08:43;6.80;;;2.25;;
16662;SDS011;8445;51.270;9.434;2023-04-30T09:11:25;2.83;;;1.60;;
16662;SDS011;8445;51.270;9.434;2023-04-30T09:13:59;6.50;;;1.95;;
16662;SDS011;8445;51.270;9.434;2023-04-30T09:16:26;3.58;;;1.70;;
16662;SDS011;8445;51.270;9.434;2023-04-30T09:18:57;5.40;;;2.00;;
16662;SDS011;8445;51.270;9.434;2023-04-30T09:21:31;6.72;;;1.88;;
16662;SDS011;8445;51.270;9.434;2023-04-30T09:24:01;3.70;;;1.75;;
16662;SDS011;8445;51.270;9.434;2023-04-30T09:26:32;8.35;;;2.05;;
16662;SDS011;8445;51.270;9.434;2023-04-30T09:28:58;6.18;;;2.03;;
16662;SDS011;8445;51.270;9.434;2023-04-30T09:31:25;2.97;;;1.45;;
16662;SDS011;8445;51.270;9.434;2023-04-30T09:33:54;5.13;;;1.80;;
16662;SDS011;8445;51.270;9.434;2023-04-30T09:36:22;4.97;;;1.80;;
16662;SDS011;8445;51.270;9.434;2023-04-30T09:38:48;3.28;;;1.67;;
16662;SDS011;8445;51.270;9.434;2023-04-30T09:41:27;4.95;;;1.88;;
16662;SDS011;8445;51.270;9.434;2023-04-30T09:43:55;4.10;;;1.65;;
16662;SDS011;8445;51.270;9.434;2023-04-30T09:46:23;6.05;;;1.40;;
16662;SDS011;8445;51.270;9.434;2023-04-30T09:48:58;2.95;;;1.48;;
16662;SDS011;8445;51.270;9.434;2023-04-30T09:51:26;2.95;;;1.35;;
16662;SDS011;8445;51.270;9.434;2023-04-30T09:53:52;3.22;;;1.58;;
16662;SDS011;8445;51.270;9.434;2023-04-30T09:56:19;2.90;;;1.30;;
16662;SDS011;8445;51.270;9.434;2023-04-30T09:58:49;2.97;;;1.33;;
16662;SDS011;8445;51.270;9.434;2023-04-30T10:01:16;5.00;;;1.67;;
16662;SDS011;8445;51.270;9.434;2023-04-30T10:03:42;9.60;;;2.28;;
16662;SDS011;8445;51.270;9.434;2023-04-30T10:06:08;2.92;;;1.40;;
16662;SDS011;8445;51.270;9.434;2023-04-30T10:08:41;1.75;;;1.35;;
16662;SDS011;8445;51.270;9.434;2023-04-30T10:11:12;1.45;;;1.15;;
16662;SDS011;8445;51.270;9.434;2023-04-30T10:13:44;4.18;;;1.60;;
16662;SDS011;8445;51.270;9.434;2023-04-30T10:16:26;2.92;;;1.50;;
16662;SDS011;8445;51.270;9.434;2023-04-30T10:19:00;1.25;;;1.08;;
16662;SDS011;8445;51.270;9.434;2023-04-30T10:21:31;2.65;;;1.60;;
16662;SDS011;8445;51.270;9.434;2023-04-30T10:23:56;2.80;;;1.17;;
16662;SDS011;8445;51.270;9.434;2023-04-30T10:26:23;3.47;;;1.35;;
16662;SDS011;8445;51.270;9.434;2023-04-30T10:28:49;3.92;;;1.40;;
16662;SDS011;8445;51.270;9.434;2023-04-30T10:31:25;3.85;;;1.30;;
16662;SDS011;8445;51.270;9.434;2023-04-30T10:36:45;5.32;;;1.90;;
16662;SDS011;8445;51.270;9.434;2023-04-30T10:39:13;1.83;;;1.23;;
16662;SDS011;8445;51.270;9.434;2023-04-30T10:41:45;3.00;;;1.40;;
16662;SDS011;8445;51.270;9.434;2023-04-30T10:44:14;1.30;;;1.10;;
16662;SDS011;8445;51.270;9.434;2023-04-30T10:46:40;2.45;;;1.27;;
16662;SDS011;8445;51.270;9.434;2023-04-30T10:49:06;4.60;;;1.30;;
16662;SDS011;8445;51.270;9.434;2023-04-30T10:51:49;4.43;;;1.50;;
16662;SDS011;8445;51.270;9.434;2023-04-30T10:54:26;4.03;;;1.63;;
16662;SDS011;8445;51.270;9.434;2023-04-30T10:57:15;1.67;;;1.00;;
16662;SDS011;8445;51.270;9.434;2023-04-30T10:59:50;3.60;;;1.00;;
16662;SDS011;8445;51.270;9.434;2023-04-30T11:02:42;5.00;;;1.27;;
16662;SDS011;8445;51.270;9.434;2023-04-30T11:05:12;6.18;;;1.50;;
16662;SDS011;8445;51.270;9.434;2023-04-30T11:07:49;4.05;;;1.30;;
16662;SDS011;8445;51.270;9.434;2023-04-30T11:10:21;3.80;;;1.30;;
16662;SDS011;8445;51.270;9.434;2023-04-30T11:12:48;2.20;;;1.15;;
16662;SDS011;8445;51.270;9.434;2023-04-30T11:15:21;2.35;;;1.38;;
16662;SDS011;8445;51.270;9.434;2023-04-30T11:17:49;3.72;;;1.60;;
16662;SDS011;8445;51.270;9.434;2023-04-30T11:20:21;2.35;;;1.00;;
16662;SDS011;8445;51.270;9.434;2023-04-30T11:23:13;3.03;;;1.15;;
16662;SDS011;8445;51.270;9.434;2023-04-30T11:25:43;2.80;;;1.60;;
16662;SDS011;8445;51.270;9.434;2023-04-30T11:28:19;2.92;;;1.40;;
16662;SDS011;8445;51.270;9.434;2023-04-30T11:30:49;2.53;;;1.70;;
16662;SDS011;8445;51.270;9.434;2023-04-30T11:33:29;5.28;;;2.17;;
16662;SDS011;8445;51.270;9.434;2023-04-30T11:35:56;3.08;;;1.63;;
16662;SDS011;8445;51.270;9.434;2023-04-30T11:38:38;2.90;;;1.55;;
16662;SDS011;8445;51.270;9.434;2023-04-30T11:41:04;5.63;;;1.38;;
16662;SDS011;8445;51.270;9.434;2023-04-30T11:43:30;7.25;;;1.63;;
16662;SDS011;8445;51.270;9.434;2023-04-30T11:46:09;3.20;;;1.40;;
16662;SDS011;8445;51.270;9.434;2023-04-30T11:48:36;4.40;;;1.77;;
16662;SDS011;8445;51.270;9.434;2023-04-30T11:51:16;3.13;;;1.50;;
16662;SDS011;8445;51.270;9.434;2023-04-30T11:53:46;8.00;;;4.22;;
16662;SDS011;8445;51.270;9.434;2023-04-30T11:56:23;2.67;;;1.80;;
16662;SDS011;8445;51.270;9.434;2023-04-30T11:58:49;1.30;;;1.20;;
16662;SDS011;8445;51.270;9.434;2023-04-30T12:01:16;4.20;;;1.55;;
16662;SDS011;8445;51.270;9.434;2023-04-30T12:03:47;2.38;;;1.40;;
16662;SDS011;8445;51.270;9.434;2023-04-30T12:06:21;6.65;;;4.43;;
16662;SDS011;8445;51.270;9.434;2023-04-30T12:08:54;3.03;;;1.60;;
16662;SDS011;8445;51.270;9.434;2023-04-30T12:11:21;4.50;;;1.77;;
16662;SDS011;8445;51.270;9.434;2023-04-30T12:13:53;2.10;;;1.45;;
16662;SDS011;8445;51.270;9.434;2023-04-30T12:16:19;2.97;;;1.50;;
16662;SDS011;8445;51.270;9.434;2023-04-30T12:18:48;2.47;;;1.38;;
16662;SDS011;8445;51.270;9.434;2023-04-30T12:21:14;2.38;;;1.30;;
16662;SDS011;8445;51.270;9.434;2023-04-30T12:23:40;2.97;;;1.33;;
16662;SDS011;8445;51.270;9.434;2023-04-30T12:26:06;3.92;;;1.70;;
16662;SDS011;8445;51.270;9.434;2023-04-30T12:28:33;2.47;;;1.40;;
16662;SDS011;8445;51.270;9.434;2023-04-30T12:30:58;2.90;;;1.80;;
16662;SDS011;8445;51.270;9.434;2023-04-30T12:33:24;1.83;;;1.60;;
16662;SDS011;8445;51.270;9.434;2023-04-30T12:35:55;5.10;;;3.65;;
16662;SDS011;8445;51.270;9.434;2023-04-30T12:38:22;4.75;;;1.83;;
16662;SDS011;8445;51.270;9.434;2023-04-30T12:40:48;5.25;;;2.60;;
16662;SDS011;8445;51.270;9.434;2023-04-30T12:43:14;3.38;;;1.50;;
16662;SDS011;8445;51.270;9.434;2023-04-30T12:45:44;1.50;;;1.27;;
16662;SDS011;8445;51.270;9.434;2023-04-30T12:48:10;4.45;;;2.28;;
16662;SDS011;8445;51.270;9.434;2023-04-30T12:50:35;2.78;;;1.55;;
16662;SDS011;8445;51.270;9.434;2023-04-30T12:53:02;3.85;;;2.00;;
16662;SDS011;8445;51.270;9.434;2023-04-30T12:55:29;2.38;;;1.15;;
16662;SDS011;8445;51.270;9.434;2023-04-30T12:58:05;2.50;;;1.20;;
16662;SDS011;8445;51.270;9.434;2023-04-30T13:00:42;2.33;;;1.30;;
16662;SDS011;8445;51.270;9.434;2023-04-30T13:03:08;2.70;;;1.38;;
16662;SDS011;8445;51.270;9.434;2023-04-30T13:05:33;4.03;;;1.17;;
16662;SDS011;8445;51.270;9.434;2023-04-30T13:08:02;1.58;;;1.20;;
16662;SDS011;8445;51.270;9.434;2023-04-30T13:10:31;5.40;;;3.92;;
16662;SDS011;8445;51.270;9.434;2023-04-30T13:12:57;2.50;;;1.05;;
16662;SDS011;8445;51.270;9.434;2023-04-30T13:15:23;2.22;;;1.40;;
16662;SDS011;8445;51.270;9.434;2023-04-30T13:17:49;4.00;;;1.70;;
16662;SDS011;8445;51.270;9.434;2023-04-30T13:20:15;2.55;;;1.60;;
16662;SDS011;8445;51.270;9.434;2023-04-30T13:22:41;3.22;;;1.60;;
16662;SDS011;8445;51.270;9.434;2023-04-30T13:25:06;1.83;;;1.30;;
16662;SDS011;8445;51.270;9.434;2023-04-30T13:27:32;3.38;;;1.55;;
16662;SDS011;8445;51.270;9.434;2023-04-30T13:29:58;1.90;;;0.80;;
16662;SDS011;8445;51.270;9.434;2023-04-30T13:32:25;2.65;;;0.93;;
16662;SDS011;8445;51.270;9.434;2023-04-30T13:34:50;1.40;;;1.30;;
16662;SDS011;8445;51.270;9.434;2023-04-30T13:37:19;2.47;;;1.55;;
16662;SDS011;8445;51.270;9.434;2023-04-30T13:39:44;1.15;;;0.95;;
16662;SDS011;8445;51.270;9.434;2023-04-30T13:42:10;1.08;;;1.00;;
16662;SDS011;8445;51.270;9.434;2023-04-30T13:44:37;3.03;;;1.20;;
16662;SDS011;8445;51.270;9.434;2023-04-30T13:47:03;2.45;;;1.30;;
16662;SDS011;8445;51.270;9.434;2023-04-30T13:49:29;2.55;;;0.98;;
16662;SDS011;8445;51.270;9.434;2023-04-30T13:51:54;4.25;;;0.93;;
16662;SDS011;8445;51.270;9.434;2023-04-30T13:54:20;1.65;;;1.00;;
16662;SDS011;8445;51.270;9.434;2023-04-30T13:56:45;3.28;;;1.10;;
16662;SDS011;8445;51.270;9.434;2023-04-30T13:59:13;1.85;;;1.20;;
16662;SDS011;8445;51.270;9.434;2023-04-30T14:01:39;5.97;;;2.60;;
16662;SDS011;8445;51.270;9.434;2023-04-30T14:04:05;2.60;;;1.60;;
16662;SDS011;8445;51.270;9.434;2023-04-30T14:06:32;4.07;;;1.50;;
16662;SDS011;8445;51.270;9.434;2023-04-30T14:08:57;3.65;;;1.27;;
16662;SDS011;8445;51.270;9.434;2023-04-30T14:11:23;2.25;;;1.52;;
16662;SDS011;8445;51.270;9.434;2023-04-30T14:13:48;4.00;;;1.60;;
16662;SDS011;8445;51.270;9.434;2023-04-30T14:16:14;2.40;;;1.52;;
16662;SDS011;8445;51.270;9.434;2023-04-30T14:18:39;1.83;;;1.35;;
16662;SDS011;8445;51.270;9.434;2023-04-30T14:21:05;3.05;;;1.60;;
16662;SDS011;8445;51.270;9.434;2023-04-30T14:23:31;3.90;;;1.75;;
16662;SDS011;8445;51.270;9.434;2023-04-30T14:25:58;6.05;;;1.60;;
16662;SDS011;8445;51.270;9.434;2023-04-30T14:28:23;2.53;;;0.90;;
16662;SDS011;8445;51.270;9.434;2023-04-30T14:30:48;2.53;;;1.33;;
16662;SDS011;8445;51.270;9.434;2023-04-30T14:33:14;1.80;;;1.20;;
16662;SDS011;8445;51.270;9.434;2023-04-30T14:35:39;1.80;;;1.50;;
16662;SDS011;8445;51.270;9.434;2023-04-30T14:38:07;4.10;;;1.65;;
16662;SDS011;8445;51.270;9.434;2023-04-30T14:40:33;4.05;;;1.50;;
16662;SDS011;8445;51.270;9.434;2023-04-30T14:42:59;1.67;;;1.13;;
16662;SDS011;8445;51.270;9.434;2023-04-30T14:45:25;1.35;;;1.20;;
16662;SDS011;8445;51.270;9.434;2023-04-30T14:47:52;2.50;;;1.60;;
16662;SDS011;8445;51.270;9.434;2023-04-30T14:50:17;2.20;;;1.40;;
16662;SDS011;8445;51.270;9.434;2023-04-30T14:52:48;2.85;;;1.25;;
16662;SDS011;8445;51.270;9.434;2023-04-30T14:55:16;3.72;;;1.10;;
16662;SDS011;8445;51.270;9.434;2023-04-30T14:57:43;2.90;;;1.23;;
16662;SDS011;8445;51.270;9.434;2023-04-30T15:00:09;2.35;;;1.25;;
16662;SDS011;8445;51.270;9.434;2023-04-30T15:02:36;4.78;;;1.40;;
16662;SDS011;8445;51.270;9.434;2023-04-30T15:05:02;2.92;;;1.13;;
16662;SDS011;8445;51.270;9.434;2023-04-30T15:07:29;2.55;;;1.20;;
16662;SDS011;8445;51.270;9.434;2023-04-30T15:09:54;3.50;;;1.15;;